sensor_id;sensor_type;location;lat;lon;timestamp;P1;durP1;ratioP1;P2;durP2;ratioP2
2544;SDS011;36212;48.838;9.142;2023-04-24T00:00:58;1.58;;;1.48;;
2544;SDS011;36212;48.838;9.142;2023-04-24T00:03:32;2.00;;;1.70;;
2544;SDS011;36212;48.838;9.142;2023-04-24T00:06:05;1.65;;;1.55;;
2544;SDS011;36212;48.838;9.142;2023-04-24T00:08:39;1.55;;;1.42;;
2544;SDS011;36212;48.838;9.142;2023-04-24T00:11:11;1.80;;;1.70;;
2544;SDS011;36212;48.838;9.142;2023-04-24T00:13:43;1.50;;;1.40;;
2544;SDS011;36212;48.838;9.142;2023-04-24T00:16:16;1.55;;;1.45;;
2544;SDS011;36212;48.838;9.142;2023-04-24T00:18:48;1.50;;;1.40;;
2544;SDS011;36212;48.838;9.142;2023-04-24T00:21:23;1.67;;;1.58;;
2544;SDS011;36212;48.838;9.142;2023-04-24T00:23:57;2.65;;;1.58;;
2544;SDS011;36212;48.838;9.142;2023-04-24T00:26:29;3.30;;;1.60;;
2544;SDS011;36212;48.838;9.142;2023-04-24T00:29:02;1.40;;;1.30;;
2544;SDS011;36212;48.838;9.142;2023-04-24T00:31:34;1.45;;;1.33;;
2544;SDS011;36212;48.838;9.142;2023-04-24T00:34:06;2.00;;;1.73;;
2544;SDS011;36212;48.838;9.142;2023-04-24T00:36:39;1.55;;;1.45;;
2544;SDS011;36212;48.838;9.142;2023-04-24T00:39:11;2.05;;;1.40;;
2544;SDS011;36212;48.838;9.142;2023-04-24T00:41:44;3.72;;;1.40;;
2544;SDS011;36212;48.838;9.142;2023-04-24T00:44:18;2.58;;;1.55;;
2544;SDS011;36212;48.838;9.142;2023-04-24T00:46:50;1.52;;;1.42;;
2544;SDS011;36212;48.838;9.142;2023-04-24T00:49:26;1.30;;;1.20;;
2544;SDS011;36212;48.838;9.142;2023-04-24T00:51:58;1.55;;;1.45;;
2544;SDS011;36212;48.838;9.142;2023-04-24T00:54:31;1.63;;;1.52;;
2544;SDS011;36212;48.838;9.142;2023-04-24T00:57:03;1.90;;;1.55;;
2544;SDS011;36212;48.838;9.142;2023-04-24T00:59:35;5.38;;;1.73;;
2544;SDS011;36212;48.838;9.142;2023-04-24T01:02:09;1.38;;;1.27;;
2544;SDS011;36212;48.838;9.142;2023-04-24T01:04:42;1.33;;;1.23;;
2544;SDS011;36212;48.838;9.142;2023-04-24T01:07:15;1.45;;;1.35;;
2544;SDS011;36212;48.838;9.142;2023-04-24T01:09:49;1.60;;;1.50;;
2544;SDS011;36212;48.838;9.142;2023-04-24T01:12:23;1.55;;;1.45;;
2544;SDS011;36212;48.838;9.142;2023-04-24T01:14:55;1.40;;;1.30;;
2544;SDS011;36212;48.838;9.142;2023-04-24T01:17:28;1.30;;;1.20;;
2544;SDS011;36212;48.838;9.142;2023-04-24T01:20:01;1.60;;;1.40;;
2544;SDS011;36212;48.838;9.142;2023-04-24T01:22:37;1.52;;;1.42;;
2544;SDS011;36212;48.838;9.142;2023-04-24T01:25:10;1.40;;;1.30;;
2544;SDS011;36212;48.838;9.142;2023-04-24T01:27:42;3.17;;;1.67;;
2544;SDS011;36212;48.838;9.142;2023-04-24T01:30:15;1.52;;;1.42;;
2544;SDS011;36212;48.838;9.142;2023-04-24T01:32:48;1.40;;;1.30;;
2544;SDS011;36212;48.838;9.142;2023-04-24T01:39:31;1.40;;;1.30;;
2544;SDS011;36212;48.838;9.142;2023-04-24T01:42:05;1.50;;;1.40;;
2544;SDS011;36212;48.838;9.142;2023-04-24T01:44:38;1.65;;;1.20;;
2544;SDS011;36212;48.838;9.142;2023-04-24T01:47:12;1.40;;;1.30;;
2544;SDS011;36212;48.838;9.142;2023-04-24T01:49:45;1.48;;;1.38;;
2544;SDS011;36212;48.838;9.142;2023-04-24T01:52:20;1.38;;;1.27;;
2544;SDS011;36212;48.838;9.142;2023-04-24T01:54:53;1.60;;;1.50;;
2544;SDS011;36212;48.838;9.142;2023-04-24T01:57:30;1.60;;;1.35;;
2544;SDS011;36212;48.838;9.142;2023-04-24T02:00:03;2.55;;;1.40;;
2544;SDS011;36212;48.838;9.142;2023-04-24T02:02:41;2.17;;;1.30;;
2544;SDS011;36212;48.838;9.142;2023-04-24T02:05:18;1.48;;;1.38;;
2544;SDS011;36212;48.838;9.142;2023-04-24T02:10:46;1.60;;;1.30;;
2544;SDS011;36212;48.838;9.142;2023-04-24T02:13:18;1.50;;;1.40;;
2544;SDS011;36212;48.838;9.142;2023-04-24T02:15:51;1.48;;;1.38;;
2544;SDS011;36212;48.838;9.142;2023-04-24T02:18:23;1.70;;;1.60;;
2544;SDS011;36212;48.838;9.142;2023-04-24T02:20:55;1.60;;;1.50;;
2544;SDS011;36212;48.838;9.142;2023-04-24T02:23:28;1.50;;;1.40;;
2544;SDS011;36212;48.838;9.142;2023-04-24T02:26:00;1.65;;;1.55;;
2544;SDS011;36212;48.838;9.142;2023-04-24T02:28:32;1.60;;;1.50;;
2544;SDS011;36212;48.838;9.142;2023-04-24T02:31:05;1.52;;;1.42;;
2544;SDS011;36212;48.838;9.142;2023-04-24T02:33:37;1.45;;;1.35;;
2544;SDS011;36212;48.838;9.142;2023-04-24T02:36:10;1.50;;;1.40;;
2544;SDS011;36212;48.838;9.142;2023-04-24T02:38:43;2.22;;;1.58;;
2544;SDS011;36212;48.838;9.142;2023-04-24T02:41:15;2.92;;;1.77;;
2544;SDS011;36212;48.838;9.142;2023-04-24T02:43:47;2.25;;;1.55;;
2544;SDS011;36212;48.838;9.142;2023-04-24T02:46:19;2.10;;;1.90;;
2544;SDS011;36212;48.838;9.142;2023-04-24T02:48:52;1.65;;;1.55;;
2544;SDS011;36212;48.838;9.142;2023-04-24T02:51:24;2.03;;;1.90;;
2544;SDS011;36212;48.838;9.142;2023-04-24T02:53:57;1.65;;;1.55;;
2544;SDS011;36212;48.838;9.142;2023-04-24T02:56:29;1.50;;;1.40;;
2544;SDS011;36212;48.838;9.142;2023-04-24T02:59:01;1.70;;;1.60;;
2544;SDS011;36212;48.838;9.142;2023-04-24T03:01:33;1.40;;;1.30;;
2544;SDS011;36212;48.838;9.142;2023-04-24T03:04:06;1.40;;;1.30;;
2544;SDS011;36212;48.838;9.142;2023-04-24T03:06:38;1.88;;;1.65;;
2544;SDS011;36212;48.838;9.142;2023-04-24T03:09:10;1.35;;;1.25;;
2544;SDS011;36212;48.838;9.142;2023-04-24T03:11:42;1.45;;;1.35;;
2544;SDS011;36212;48.838;9.142;2023-04-24T03:14:15;1.65;;;1.55;;
2544;SDS011;36212;48.838;9.142;2023-04-24T03:16:47;2.53;;;1.60;;
2544;SDS011;36212;48.838;9.142;2023-04-24T03:19:20;2.13;;;1.70;;
2544;SDS011;36212;48.838;9.142;2023-04-24T03:21:53;1.40;;;1.30;;
2544;SDS011;36212;48.838;9.142;2023-04-24T03:24:25;1.63;;;1.52;;
2544;SDS011;36212;48.838;9.142;2023-04-24T03:26:59;2.00;;;1.45;;
2544;SDS011;36212;48.838;9.142;2023-04-24T03:29:31;2.30;;;1.70;;
2544;SDS011;36212;48.838;9.142;2023-04-24T03:32:03;1.75;;;1.65;;
2544;SDS011;36212;48.838;9.142;2023-04-24T03:34:36;2.28;;;1.27;;
2544;SDS011;36212;48.838;9.142;2023-04-24T03:37:08;1.70;;;1.60;;
2544;SDS011;36212;48.838;9.142;2023-04-24T03:39:40;2.58;;;1.38;;
2544;SDS011;36212;48.838;9.142;2023-04-24T03:42:13;1.63;;;1.52;;
2544;SDS011;36212;48.838;9.142;2023-04-24T03:44:45;1.50;;;1.40;;
2544;SDS011;36212;48.838;9.142;2023-04-24T03:47:17;1.50;;;1.40;;
2544;SDS011;36212;48.838;9.142;2023-04-24T03:49:49;3.17;;;1.30;;
2544;SDS011;36212;48.838;9.142;2023-04-24T03:52:22;1.63;;;1.52;;
2544;SDS011;36212;48.838;9.142;2023-04-24T03:54:54;1.45;;;1.35;;
2544;SDS011;36212;48.838;9.142;2023-04-24T03:57:27;2.10;;;1.40;;
2544;SDS011;36212;48.838;9.142;2023-04-24T03:59:59;4.13;;;1.60;;
2544;SDS011;36212;48.838;9.142;2023-04-24T04:02:32;1.60;;;1.50;;
2544;SDS011;36212;48.838;9.142;2023-04-24T04:05:04;1.63;;;1.52;;
2544;SDS011;36212;48.838;9.142;2023-04-24T04:07:38;5.22;;;1.48;;
2544;SDS011;36212;48.838;9.142;2023-04-24T04:13:20;1.60;;;1.50;;
2544;SDS011;36212;48.838;9.142;2023-04-24T04:15:52;1.50;;;1.40;;
2544;SDS011;36212;48.838;9.142;2023-04-24T04:18:25;2.00;;;1.80;;
2544;SDS011;36212;48.838;9.142;2023-04-24T04:20:57;1.60;;;1.50;;
2544;SDS011;36212;48.838;9.142;2023-04-24T04:23:32;2.20;;;1.67;;
2544;SDS011;36212;48.838;9.142;2023-04-24T04:26:04;1.52;;;1.42;;
2544;SDS011;36212;48.838;9.142;2023-04-24T04:28:36;1.80;;;1.55;;
2544;SDS011;36212;48.838;9.142;2023-04-24T04:31:10;2.00;;;1.90;;
2544;SDS011;36212;48.838;9.142;2023-04-24T04:33:43;2.28;;;2.17;;
2544;SDS011;36212;48.838;9.142;2023-04-24T04:36:16;1.98;;;1.88;;
2544;SDS011;36212;48.838;9.142;2023-04-24T04:38:49;3.30;;;2.10;;
2544;SDS011;36212;48.838;9.142;2023-04-24T04:41:22;2.13;;;2.03;;
2544;SDS011;36212;48.838;9.142;2023-04-24T04:43:55;2.40;;;2.10;;
2544;SDS011;36212;48.838;9.142;2023-04-24T04:46:31;2.08;;;1.73;;
2544;SDS011;36212;48.838;9.142;2023-04-24T04:49:08;1.90;;;1.80;;
2544;SDS011;36212;48.838;9.142;2023-04-24T04:51:43;1.80;;;1.70;;
2544;SDS011;36212;48.838;9.142;2023-04-24T04:54:16;2.83;;;2.05;;
2544;SDS011;36212;48.838;9.142;2023-04-24T04:56:49;1.85;;;1.75;;
2544;SDS011;36212;48.838;9.142;2023-04-24T04:59:22;2.47;;;1.80;;
2544;SDS011;36212;48.838;9.142;2023-04-24T05:01:54;2.10;;;1.95;;
2544;SDS011;36212;48.838;9.142;2023-04-24T05:04:28;2.13;;;2.00;;
2544;SDS011;36212;48.838;9.142;2023-04-24T05:07:01;2.05;;;1.80;;
2544;SDS011;36212;48.838;9.142;2023-04-24T05:09:33;2.00;;;1.90;;
2544;SDS011;36212;48.838;9.142;2023-04-24T05:12:05;2.58;;;1.98;;
2544;SDS011;36212;48.838;9.142;2023-04-24T05:14:38;1.98;;;1.88;;
2544;SDS011;36212;48.838;9.142;2023-04-24T05:17:20;1.98;;;1.88;;
2544;SDS011;36212;48.838;9.142;2023-04-24T05:19:52;2.17;;;1.98;;
2544;SDS011;36212;48.838;9.142;2023-04-24T05:22:24;1.98;;;1.88;;
2544;SDS011;36212;48.838;9.142;2023-04-24T05:24:56;1.95;;;1.85;;
2544;SDS011;36212;48.838;9.142;2023-04-24T05:27:29;2.20;;;2.00;;
2544;SDS011;36212;48.838;9.142;2023-04-24T05:30:01;2.08;;;1.98;;
2544;SDS011;36212;48.838;9.142;2023-04-24T05:32:34;2.28;;;2.15;;
2544;SDS011;36212;48.838;9.142;2023-04-24T05:35:06;2.40;;;2.30;;
2544;SDS011;36212;48.838;9.142;2023-04-24T05:37:39;2.47;;;1.75;;
2544;SDS011;36212;48.838;9.142;2023-04-24T05:40:11;2.10;;;2.00;;
2544;SDS011;36212;48.838;9.142;2023-04-24T05:42:43;2.45;;;1.98;;
2544;SDS011;36212;48.838;9.142;2023-04-24T05:45:15;1.98;;;1.88;;
2544;SDS011;36212;48.838;9.142;2023-04-24T05:47:48;2.13;;;2.03;;
2544;SDS011;36212;48.838;9.142;2023-04-24T05:50:22;2.00;;;1.90;;
2544;SDS011;36212;48.838;9.142;2023-04-24T05:52:54;2.15;;;2.05;;
2544;SDS011;36212;48.838;9.142;2023-04-24T05:55:30;2.20;;;2.10;;
2544;SDS011;36212;48.838;9.142;2023-04-24T05:58:03;2.00;;;1.90;;
2544;SDS011;36212;48.838;9.142;2023-04-24T06:00:35;2.38;;;2.22;;
2544;SDS011;36212;48.838;9.142;2023-04-24T06:03:10;2.58;;;2.38;;
2544;SDS011;36212;48.838;9.142;2023-04-24T06:05:42;2.30;;;2.20;;
2544;SDS011;36212;48.838;9.142;2023-04-24T06:08:14;2.00;;;1.90;;
2544;SDS011;36212;48.838;9.142;2023-04-24T06:10:46;2.65;;;2.20;;
2544;SDS011;36212;48.838;9.142;2023-04-24T06:13:19;2.10;;;2.00;;
2544;SDS011;36212;48.838;9.142;2023-04-24T06:15:51;2.03;;;1.92;;
2544;SDS011;36212;48.838;9.142;2023-04-24T06:18:24;2.05;;;1.95;;
2544;SDS011;36212;48.838;9.142;2023-04-24T06:20:56;2.13;;;2.03;;
2544;SDS011;36212;48.838;9.142;2023-04-24T06:23:28;2.20;;;2.10;;
2544;SDS011;36212;48.838;9.142;2023-04-24T06:26:02;2.47;;;2.28;;
2544;SDS011;36212;48.838;9.142;2023-04-24T06:28:35;2.30;;;2.20;;
2544;SDS011;36212;48.838;9.142;2023-04-24T06:31:07;1.80;;;1.70;;
2544;SDS011;36212;48.838;9.142;2023-04-24T06:33:39;2.30;;;2.20;;
2544;SDS011;36212;48.838;9.142;2023-04-24T06:36:12;2.30;;;2.20;;
2544;SDS011;36212;48.838;9.142;2023-04-24T06:38:45;2.58;;;2.35;;
2544;SDS011;36212;48.838;9.142;2023-04-24T06:41:18;2.33;;;2.22;;
2544;SDS011;36212;48.838;9.142;2023-04-24T06:43:50;2.35;;;2.25;;
2544;SDS011;36212;48.838;9.142;2023-04-24T06:46:22;2.25;;;2.15;;
2544;SDS011;36212;48.838;9.142;2023-04-24T06:49:13;2.00;;;1.90;;
2544;SDS011;36212;48.838;9.142;2023-04-24T06:51:47;1.90;;;1.80;;
2544;SDS011;36212;48.838;9.142;2023-04-24T06:54:19;1.90;;;1.80;;
2544;SDS011;36212;48.838;9.142;2023-04-24T06:56:52;2.10;;;2.00;;
2544;SDS011;36212;48.838;9.142;2023-04-24T06:59:24;2.10;;;2.00;;
2544;SDS011;36212;48.838;9.142;2023-04-24T07:01:58;2.40;;;2.30;;
2544;SDS011;36212;48.838;9.142;2023-04-24T07:04:30;2.30;;;2.20;;
2544;SDS011;36212;48.838;9.142;2023-04-24T07:07:03;2.65;;;2.20;;
2544;SDS011;36212;48.838;9.142;2023-04-24T07:09:37;2.88;;;2.22;;
2544;SDS011;36212;48.838;9.142;2023-04-24T07:12:12;1.80;;;1.70;;
2544;SDS011;36212;48.838;9.142;2023-04-24T07:14:47;2.30;;;2.20;;
2544;SDS011;36212;48.838;9.142;2023-04-24T07:17:20;2.38;;;2.20;;
2544;SDS011;36212;48.838;9.142;2023-04-24T07:19:52;2.35;;;2.25;;
2544;SDS011;36212;48.838;9.142;2023-04-24T07:22:25;2.28;;;2.13;;
2544;SDS011;36212;48.838;9.142;2023-04-24T07:24:57;2.33;;;2.15;;
2544;SDS011;36212;48.838;9.142;2023-04-24T07:27:30;2.15;;;1.73;;
2544;SDS011;36212;48.838;9.142;2023-04-24T07:30:04;2.40;;;2.30;;
2544;SDS011;36212;48.838;9.142;2023-04-24T07:32:37;2.28;;;2.17;;
2544;SDS011;36212;48.838;9.142;2023-04-24T07:35:12;2.25;;;2.15;;
2544;SDS011;36212;48.838;9.142;2023-04-24T07:37:44;2.30;;;2.10;;
2544;SDS011;36212;48.838;9.142;2023-04-24T07:40:17;2.70;;;2.50;;
2544;SDS011;36212;48.838;9.142;2023-04-24T07:42:50;2.35;;;2.15;;
2544;SDS011;36212;48.838;9.142;2023-04-24T07:45:23;2.05;;;1.95;;
2544;SDS011;36212;48.838;9.142;2023-04-24T07:47:58;2.50;;;2.30;;
2544;SDS011;36212;48.838;9.142;2023-04-24T07:50:31;2.03;;;1.92;;
2544;SDS011;36212;48.838;9.142;2023-04-24T07:53:03;2.35;;;2.20;;
2544;SDS011;36212;48.838;9.142;2023-04-24T07:55:41;2.35;;;2.15;;
2544;SDS011;36212;48.838;9.142;2023-04-24T07:58:13;2.25;;;2.05;;
2544;SDS011;36212;48.838;9.142;2023-04-24T08:00:46;2.05;;;1.95;;
2544;SDS011;36212;48.838;9.142;2023-04-24T08:03:18;2.63;;;2.42;;
2544;SDS011;36212;48.838;9.142;2023-04-24T08:05:51;2.13;;;1.90;;
2544;SDS011;36212;48.838;9.142;2023-04-24T08:08:24;1.77;;;1.67;;
2544;SDS011;36212;48.838;9.142;2023-04-24T08:10:57;1.83;;;1.73;;
2544;SDS011;36212;48.838;9.142;2023-04-24T08:13:29;1.90;;;1.80;;
2544;SDS011;36212;48.838;9.142;2023-04-24T08:16:02;3.25;;;1.90;;
2544;SDS011;36212;48.838;9.142;2023-04-24T08:18:34;3.15;;;2.20;;
2544;SDS011;36212;48.838;9.142;2023-04-24T08:21:07;3.78;;;2.53;;
2544;SDS011;36212;48.838;9.142;2023-04-24T08:23:39;2.35;;;2.15;;
2544;SDS011;36212;48.838;9.142;2023-04-24T08:26:12;4.43;;;2.20;;
2544;SDS011;36212;48.838;9.142;2023-04-24T08:28:44;2.20;;;2.05;;
2544;SDS011;36212;48.838;9.142;2023-04-24T08:31:17;2.30;;;2.20;;
2544;SDS011;36212;48.838;9.142;2023-04-24T08:33:50;2.70;;;1.80;;
2544;SDS011;36212;48.838;9.142;2023-04-24T08:36:22;2.50;;;2.30;;
2544;SDS011;36212;48.838;9.142;2023-04-24T08:39:03;1.90;;;1.80;;
2544;SDS011;36212;48.838;9.142;2023-04-24T08:41:37;1.73;;;1.63;;
2544;SDS011;36212;48.838;9.142;2023-04-24T08:44:13;2.63;;;2.42;;
2544;SDS011;36212;48.838;9.142;2023-04-24T08:46:49;2.75;;;1.80;;
2544;SDS011;36212;48.838;9.142;2023-04-24T08:49:23;2.03;;;1.92;;
2544;SDS011;36212;48.838;9.142;2023-04-24T08:51:58;1.80;;;1.70;;
2544;SDS011;36212;48.838;9.142;2023-04-24T08:54:36;2.10;;;2.00;;
2544;SDS011;36212;48.838;9.142;2023-04-24T08:57:09;1.92;;;1.83;;
2544;SDS011;36212;48.838;9.142;2023-04-24T08:59:44;2.03;;;1.92;;
2544;SDS011;36212;48.838;9.142;2023-04-24T09:02:17;2.22;;;2.13;;
2544;SDS011;36212;48.838;9.142;2023-04-24T09:04:51;2.83;;;1.90;;
2544;SDS011;36212;48.838;9.142;2023-04-24T09:07:25;7.43;;;2.60;;
2544;SDS011;36212;48.838;9.142;2023-04-24T09:10:04;2.78;;;2.47;;
2544;SDS011;36212;48.838;9.142;2023-04-24T09:12:37;2.20;;;2.00;;
2544;SDS011;36212;48.838;9.142;2023-04-24T09:15:10;2.50;;;2.20;;
2544;SDS011;36212;48.838;9.142;2023-04-24T09:18:01;1.83;;;1.73;;
2544;SDS011;36212;48.838;9.142;2023-04-24T09:20:34;2.15;;;2.05;;
2544;SDS011;36212;48.838;9.142;2023-04-24T09:23:28;2.15;;;2.00;;
2544;SDS011;36212;48.838;9.142;2023-04-24T09:26:02;2.90;;;2.03;;
2544;SDS011;36212;48.838;9.142;2023-04-24T09:28:40;2.55;;;2.00;;
2544;SDS011;36212;48.838;9.142;2023-04-24T09:31:13;2.35;;;1.70;;
2544;SDS011;36212;48.838;9.142;2023-04-24T09:33:56;2.00;;;1.90;;
2544;SDS011;36212;48.838;9.142;2023-04-24T09:36:35;2.38;;;2.20;;
2544;SDS011;36212;48.838;9.142;2023-04-24T09:39:12;2.85;;;2.03;;
2544;SDS011;36212;48.838;9.142;2023-04-24T09:41:51;2.95;;;2.42;;
2544;SDS011;36212;48.838;9.142;2023-04-24T09:44:26;2.10;;;2.00;;
2544;SDS011;36212;48.838;9.142;2023-04-24T09:46:59;2.03;;;1.83;;
2544;SDS011;36212;48.838;9.142;2023-04-24T09:49:32;2.22;;;2.10;;
2544;SDS011;36212;48.838;9.142;2023-04-24T09:52:16;1.70;;;1.60;;
2544;SDS011;36212;48.838;9.142;2023-04-24T09:54:52;2.40;;;2.30;;
2544;SDS011;36212;48.838;9.142;2023-04-24T09:57:25;1.92;;;1.63;;
2544;SDS011;36212;48.838;9.142;2023-04-24T09:59:58;1.80;;;1.70;;
2544;SDS011;36212;48.838;9.142;2023-04-24T10:02:30;4.43;;;1.80;;
2544;SDS011;36212;48.838;9.142;2023-04-24T10:05:04;2.20;;;2.10;;
2544;SDS011;36212;48.838;9.142;2023-04-24T10:07:40;3.75;;;1.90;;
2544;SDS011;36212;48.838;9.142;2023-04-24T10:10:13;2.42;;;2.33;;
2544;SDS011;36212;48.838;9.142;2023-04-24T10:12:46;2.15;;;1.95;;
2544;SDS011;36212;48.838;9.142;2023-04-24T10:15:21;2.63;;;2.42;;
2544;SDS011;36212;48.838;9.142;2023-04-24T10:17:54;2.40;;;2.20;;
2544;SDS011;36212;48.838;9.142;2023-04-24T10:23:08;2.28;;;2.08;;
2544;SDS011;36212;48.838;9.142;2023-04-24T10:25:42;1.88;;;1.73;;
2544;SDS011;36212;48.838;9.142;2023-04-24T10:28:15;1.70;;;1.60;;
2544;SDS011;36212;48.838;9.142;2023-04-24T10:30:49;2.50;;;2.03;;
2544;SDS011;36212;48.838;9.142;2023-04-24T10:33:25;2.67;;;1.80;;
2544;SDS011;36212;48.838;9.142;2023-04-24T10:35:59;2.40;;;2.30;;
2544;SDS011;36212;48.838;9.142;2023-04-24T10:38:32;2.28;;;2.17;;
2544;SDS011;36212;48.838;9.142;2023-04-24T10:41:12;2.70;;;2.50;;
2544;SDS011;36212;48.838;9.142;2023-04-24T10:44:08;3.05;;;2.22;;
2544;SDS011;36212;48.838;9.142;2023-04-24T10:46:45;2.47;;;2.28;;
2544;SDS011;36212;48.838;9.142;2023-04-24T10:49:28;3.38;;;1.90;;
2544;SDS011;36212;48.838;9.142;2023-04-24T10:52:02;2.15;;;2.03;;
2544;SDS011;36212;48.838;9.142;2023-04-24T10:54:44;1.80;;;1.70;;
2544;SDS011;36212;48.838;9.142;2023-04-24T11:02:52;1.75;;;1.65;;
2544;SDS011;36212;48.838;9.142;2023-04-24T11:08:42;4.03;;;2.05;;
2544;SDS011;36212;48.838;9.142;2023-04-24T11:11:16;1.83;;;1.73;;
2544;SDS011;36212;48.838;9.142;2023-04-24T11:22:03;2.00;;;1.90;;
2544;SDS011;36212;48.838;9.142;2023-04-24T11:27:21;2.67;;;2.53;;
2544;SDS011;36212;48.838;9.142;2023-04-24T11:37:52;2.10;;;1.90;;
2544;SDS011;36212;48.838;9.142;2023-04-24T11:40:29;4.15;;;2.40;;
2544;SDS011;36212;48.838;9.142;2023-04-24T11:43:01;6.68;;;2.15;;
2544;SDS011;36212;48.838;9.142;2023-04-24T11:45:39;2.20;;;1.67;;
2544;SDS011;36212;48.838;9.142;2023-04-24T11:48:20;2.00;;;1.77;;
2544;SDS011;36212;48.838;9.142;2023-04-24T11:50:54;1.80;;;1.70;;
2544;SDS011;36212;48.838;9.142;2023-04-24T11:53:27;1.90;;;1.80;;
2544;SDS011;36212;48.838;9.142;2023-04-24T11:56:03;1.90;;;1.80;;
2544;SDS011;36212;48.838;9.142;2023-04-24T11:58:38;2.45;;;2.08;;
2544;SDS011;36212;48.838;9.142;2023-04-24T12:01:11;3.58;;;1.70;;
2544;SDS011;36212;48.838;9.142;2023-04-24T12:03:47;1.85;;;1.75;;
2544;SDS011;36212;48.838;9.142;2023-04-24T12:06:31;2.58;;;2.38;;
2544;SDS011;36212;48.838;9.142;2023-04-24T12:09:03;2.33;;;2.20;;
2544;SDS011;36212;48.838;9.142;2023-04-24T12:11:55;2.30;;;2.10;;
2544;SDS011;36212;48.838;9.142;2023-04-24T12:14:31;2.00;;;1.90;;
2544;SDS011;36212;48.838;9.142;2023-04-24T12:17:24;2.13;;;2.03;;
2544;SDS011;36212;48.838;9.142;2023-04-24T12:22:58;2.20;;;2.10;;
2544;SDS011;36212;48.838;9.142;2023-04-24T12:25:32;2.28;;;2.17;;
2544;SDS011;36212;48.838;9.142;2023-04-24T12:30:43;2.00;;;1.90;;
2544;SDS011;36212;48.838;9.142;2023-04-24T12:33:21;3.50;;;1.60;;
2544;SDS011;36212;48.838;9.142;2023-04-24T12:35:54;2.03;;;1.92;;
2544;SDS011;36212;48.838;9.142;2023-04-24T12:38:28;2.08;;;1.95;;
2544;SDS011;36212;48.838;9.142;2023-04-24T12:41:05;2.00;;;1.90;;
2544;SDS011;36212;48.838;9.142;2023-04-24T12:43:50;1.90;;;1.80;;
2544;SDS011;36212;48.838;9.142;2023-04-24T12:46:24;2.92;;;2.72;;
2544;SDS011;36212;48.838;9.142;2023-04-24T12:48:57;2.10;;;2.00;;
2544;SDS011;36212;48.838;9.142;2023-04-24T12:51:29;2.33;;;2.22;;
2544;SDS011;36212;48.838;9.142;2023-04-24T12:54:02;2.00;;;1.90;;
2544;SDS011;36212;48.838;9.142;2023-04-24T12:56:34;5.47;;;2.25;;
2544;SDS011;36212;48.838;9.142;2023-04-24T12:59:11;2.10;;;1.90;;
2544;SDS011;36212;48.838;9.142;2023-04-24T13:01:43;1.98;;;1.88;;
2544;SDS011;36212;48.838;9.142;2023-04-24T13:04:16;2.10;;;1.42;;
2544;SDS011;36212;48.838;9.142;2023-04-24T13:06:49;1.98;;;1.60;;
2544;SDS011;36212;48.838;9.142;2023-04-24T13:09:21;1.88;;;1.77;;
2544;SDS011;36212;48.838;9.142;2023-04-24T13:11:57;2.60;;;2.40;;
2544;SDS011;36212;48.838;9.142;2023-04-24T13:14:31;3.75;;;2.33;;
2544;SDS011;36212;48.838;9.142;2023-04-24T13:17:04;2.10;;;2.00;;
2544;SDS011;36212;48.838;9.142;2023-04-24T13:19:38;2.20;;;2.10;;
2544;SDS011;36212;48.838;9.142;2023-04-24T13:22:13;2.10;;;2.00;;
2544;SDS011;36212;48.838;9.142;2023-04-24T13:24:49;2.70;;;2.20;;
2544;SDS011;36212;48.838;9.142;2023-04-24T13:35:21;2.85;;;2.65;;
2544;SDS011;36212;48.838;9.142;2023-04-24T13:37:55;2.72;;;2.53;;
2544;SDS011;36212;48.838;9.142;2023-04-24T13:40:28;2.70;;;2.50;;
2544;SDS011;36212;48.838;9.142;2023-04-24T13:43:02;2.65;;;2.55;;
2544;SDS011;36212;48.838;9.142;2023-04-24T13:45:34;3.45;;;2.35;;
2544;SDS011;36212;48.838;9.142;2023-04-24T13:48:07;2.13;;;2.03;;
2544;SDS011;36212;48.838;9.142;2023-04-24T13:50:41;2.42;;;2.30;;
2544;SDS011;36212;48.838;9.142;2023-04-24T13:53:15;2.20;;;2.10;;
2544;SDS011;36212;48.838;9.142;2023-04-24T13:55:47;1.90;;;1.80;;
2544;SDS011;36212;48.838;9.142;2023-04-24T13:58:19;2.20;;;2.00;;
2544;SDS011;36212;48.838;9.142;2023-04-24T14:00:52;2.13;;;2.03;;
2544;SDS011;36212;48.838;9.142;2023-04-24T14:03:25;2.50;;;2.40;;
2544;SDS011;36212;48.838;9.142;2023-04-24T14:05:57;3.13;;;2.58;;
2544;SDS011;36212;48.838;9.142;2023-04-24T14:08:36;2.38;;;2.28;;
2544;SDS011;36212;48.838;9.142;2023-04-24T14:11:33;3.90;;;2.28;;
2544;SDS011;36212;48.838;9.142;2023-04-24T14:14:06;2.30;;;2.10;;
2544;SDS011;36212;48.838;9.142;2023-04-24T14:16:39;2.20;;;2.05;;
2544;SDS011;36212;48.838;9.142;2023-04-24T14:19:11;2.30;;;2.13;;
2544;SDS011;36212;48.838;9.142;2023-04-24T14:21:46;2.55;;;2.45;;
2544;SDS011;36212;48.838;9.142;2023-04-24T14:24:36;2.20;;;2.10;;
2544;SDS011;36212;48.838;9.142;2023-04-24T14:27:25;2.92;;;2.67;;
2544;SDS011;36212;48.838;9.142;2023-04-24T14:37:14;4.28;;;2.50;;
2544;SDS011;36212;48.838;9.142;2023-04-24T14:40:21;2.55;;;2.45;;
2544;SDS011;36212;48.838;9.142;2023-04-24T14:48:02;3.20;;;3.00;;
2544;SDS011;36212;48.838;9.142;2023-04-24T14:51:50;2.55;;;2.42;;
2544;SDS011;36212;48.838;9.142;2023-04-24T14:54:22;2.78;;;2.65;;
2544;SDS011;36212;48.838;9.142;2023-04-24T14:56:58;5.07;;;3.53;;
2544;SDS011;36212;48.838;9.142;2023-04-24T14:59:31;3.10;;;2.80;;
2544;SDS011;36212;48.838;9.142;2023-04-24T15:02:04;2.60;;;2.50;;
2544;SDS011;36212;48.838;9.142;2023-04-24T15:04:47;2.10;;;2.00;;
2544;SDS011;36212;48.838;9.142;2023-04-24T15:07:20;2.50;;;2.40;;
2544;SDS011;36212;48.838;9.142;2023-04-24T15:09:52;2.50;;;2.40;;
2544;SDS011;36212;48.838;9.142;2023-04-24T15:12:25;3.00;;;2.80;;
2544;SDS011;36212;48.838;9.142;2023-04-24T15:15:00;2.83;;;2.72;;
2544;SDS011;36212;48.838;9.142;2023-04-24T15:17:32;2.60;;;2.50;;
2544;SDS011;36212;48.838;9.142;2023-04-24T15:20:05;2.58;;;2.47;;
2544;SDS011;36212;48.838;9.142;2023-04-24T15:22:38;2.47;;;2.28;;
2544;SDS011;36212;48.838;9.142;2023-04-24T15:25:11;2.45;;;2.35;;
2544;SDS011;36212;48.838;9.142;2023-04-24T15:27:44;2.25;;;2.15;;
2544;SDS011;36212;48.838;9.142;2023-04-24T15:30:17;2.60;;;2.40;;
2544;SDS011;36212;48.838;9.142;2023-04-24T15:32:50;2.33;;;2.22;;
2544;SDS011;36212;48.838;9.142;2023-04-24T15:35:22;2.63;;;2.50;;
2544;SDS011;36212;48.838;9.142;2023-04-24T15:37:55;3.15;;;2.95;;
2544;SDS011;36212;48.838;9.142;2023-04-24T15:40:28;2.80;;;2.60;;
2544;SDS011;36212;48.838;9.142;2023-04-24T15:43:00;2.78;;;2.58;;
2544;SDS011;36212;48.838;9.142;2023-04-24T15:45:32;2.47;;;2.38;;
2544;SDS011;36212;48.838;9.142;2023-04-24T15:48:05;2.80;;;2.70;;
2544;SDS011;36212;48.838;9.142;2023-04-24T15:50:38;2.60;;;2.40;;
2544;SDS011;36212;48.838;9.142;2023-04-24T15:53:11;5.10;;;2.60;;
2544;SDS011;36212;48.838;9.142;2023-04-24T15:55:43;2.60;;;1.95;;
2544;SDS011;36212;48.838;9.142;2023-04-24T15:58:17;2.70;;;2.45;;
2544;SDS011;36212;48.838;9.142;2023-04-24T16:00:52;2.47;;;2.38;;
2544;SDS011;36212;48.838;9.142;2023-04-24T16:03:25;3.55;;;2.10;;
2544;SDS011;36212;48.838;9.142;2023-04-24T16:05:58;2.10;;;2.00;;
2544;SDS011;36212;48.838;9.142;2023-04-24T16:08:30;2.40;;;2.17;;
2544;SDS011;36212;48.838;9.142;2023-04-24T16:11:04;2.03;;;1.92;;
2544;SDS011;36212;48.838;9.142;2023-04-24T16:13:37;4.57;;;2.30;;
2544;SDS011;36212;48.838;9.142;2023-04-24T16:16:09;2.65;;;2.45;;
2544;SDS011;36212;48.838;9.142;2023-04-24T16:18:42;5.80;;;2.97;;
2544;SDS011;36212;48.838;9.142;2023-04-24T16:21:15;2.40;;;2.30;;
2544;SDS011;36212;48.838;9.142;2023-04-24T16:23:48;3.92;;;2.22;;
2544;SDS011;36212;48.838;9.142;2023-04-24T16:26:20;2.67;;;2.47;;
2544;SDS011;36212;48.838;9.142;2023-04-24T16:28:53;2.40;;;2.30;;
2544;SDS011;36212;48.838;9.142;2023-04-24T16:31:27;2.60;;;2.40;;
2544;SDS011;36212;48.838;9.142;2023-04-24T16:33:59;3.05;;;2.38;;
2544;SDS011;36212;48.838;9.142;2023-04-24T16:36:33;2.55;;;2.45;;
2544;SDS011;36212;48.838;9.142;2023-04-24T16:39:07;2.75;;;2.60;;
2544;SDS011;36212;48.838;9.142;2023-04-24T16:41:41;2.67;;;2.42;;
2544;SDS011;36212;48.838;9.142;2023-04-24T16:44:14;2.80;;;2.60;;
2544;SDS011;36212;48.838;9.142;2023-04-24T16:46:48;2.85;;;2.65;;
2544;SDS011;36212;48.838;9.142;2023-04-24T16:49:21;2.70;;;2.40;;